Terminal Aerodrome Forecast
Issued by NWS

Home | Current Version | Previous Version | Text Only | Print | Product List | Glossary On
Versions: 1 2 3 4 5 6 7 8 9 10 11 12 13 14 15 16 17 18
000
FTUS42 KMLB 261935 AAB
TAFSFB
TAF AMD
KSFB 261935Z 2620/2718 24016G25KT P6SM FEW035 FEW090
     FM262300 26012KT P6SM VCSH SCT020 BKN040 BKN250
     FM270500 24009KT P6SM SCT010 BKN020=

USA.gov is the U.S. government's official web portal to all federal, state and local government web resources and services.